Main page
METAR-TAF:

METAR-TAF

Airports :

Nadi International Airport

Nadi, Fiji

latitude: 17-45S, longitude: 177-27E, elevation: 13 m

Current weather observation

The report was made 31 minutes ago, at 06:00 UTC
Wind 9 kt from the East
Temperature 24°C
Humidity 89%
Pressure 1014 hPa
Visibility 10 km or more
Few clouds at a height of 2000 ft
Broken clouds at a height of 4300 ft
Broken clouds at a height of 10000 ft
light rain showers

METAR: NFFN 170600Z 09009KT 9999 -SHRA FEW020 BKN043 BKN100 24/22 Q1014 TEMPO 3000 SHRA

Time: 18:31 (06:31 UTC)

Forecast

The report was made 1 hour and 13 minutes ago, at 05:18 UTC
Forecast valid from 17 at 06 UTC to 18 at 06 UTC
Wind 10 kt from the East
Visibility 10 km or more
Scattered clouds at a height of 1700 ft
Broken clouds at a height of 4000 ft
light rain showers
Temporary
from 17 at 06 UTC to 18 at 06 UTC
Visibility: 3000 m
Broken clouds at a height of 1700 ft
rain showers

TAF: NFFN 170518Z 1706/1806 08010KT 9999 -SHRA SCT017 BKN040 TEMPO 1706/1806 3000 SHRA BKN017

Weather observations and forecasts of more than 4000 airports (METAR and TAF reports).

The available stations are represented by yellow and red dots on the map.

Hover mouse over dot to see the name of the station.

Then click to see weather observations and forecasts.

To change the map : click on the green buttons with a black cross to zoom in, on the green button with a dash to zoom out, or on the green arrows for adjacent maps.


METAR-TAF: